Terminal Aerodrome Forecast
Issued by NWS

Home | Current Version | Previous Version | Graphics & Text | Print | Product List | Glossary On
Versions: 1 2 3 4 5 6 7 8 9 10 11 12 13 14 15 16 17 18
000
FTUS43 KBIS 221742
TAFJMS
TAF
KJMS 221742Z 2218/2318 22012G22KT P6SM SCT250
     FM222000 22018G28KT P6SM BKN080 OVC250
     FM230200 24015KT P6SM BKN120 WS020/27040KT
     FM230700 27015KT P6SM FEW250 WS020/29040KT
     FM231500 31025G38KT P6SM BKN060=

USA.gov is the U.S. government's official web portal to all federal, state and local government web resources and services.